Aroma, Indiana
Current Conditions -  °F | °C
As of 2:55 AM on Tuesday 21 Oct 2014 (Local Time) from KTYQ Reporting Station
Broken Clouds Broken Clouds  
Wind Chill: 46°   Ceiling: 6500
Heat Index: 48°   Visibility: 10mi
Dew Point: 44°   Wind: 6mph
Humidity: 85%   Direction: 320°NW
Pressure: 29.98"   Gusts: NA
Location:  40.1832°N, 85.9359°W
Report Text: KTYQ 210655Z AUTO 32005KT 10SM BKN065 09/07 A2998 RMK AO2 T00900066
Loading
Personal Weather Stations






























Interactive Weather Map
Tropical Storm Tracking
New forecast layout! Learn more

10-Day Weather Forecast

Advertisements
Track Severe Weather on mobile